Carnerillo, Argentina
Current Conditions -  °F | °C
As of 5:00 AM on Saturday 27 Dec 2014 (Local Time) from SAOC Reporting Station
Scattered Clouds Scattered Clouds  
Wind Chill: 63°   Ceiling: Unl
Heat Index: 63°   Visibility: 6mi
Dew Point: 61°   Wind: 6mph
Humidity: 94%   Direction: 20°NNE
Pressure: 29.83"   Gusts: NA
Location:  32.92°S, 64.02°W
Report Text: SAOC 270800Z 02005KT 9999 SCT025 FEW03017/16 Q1010
Loading
Personal Weather Stations






























Interactive Weather Map New forecast layout! Learn more

10-Day Weather Forecast

Advertisements
Track Severe Weather on mobile